sensor_id;sensor_type;location;lat;lon;timestamp;P1;durP1;ratioP1;P2;durP2;ratioP2
26953;SDS011;14508;50.924;11.600;2024-02-21T00:00:30;13.82;;;2.88;;
26953;SDS011;14508;50.924;11.600;2024-02-21T00:02:58;15.38;;;2.60;;
26953;SDS011;14508;50.924;11.600;2024-02-21T00:05:28;11.82;;;2.97;;
26953;SDS011;14508;50.924;11.600;2024-02-21T00:07:58;9.32;;;2.30;;
26953;SDS011;14508;50.924;11.600;2024-02-21T00:10:26;12.10;;;1.98;;
26953;SDS011;14508;50.924;11.600;2024-02-21T00:12:55;11.60;;;3.40;;
26953;SDS011;14508;50.924;11.600;2024-02-21T00:15:23;12.18;;;2.90;;
26953;SDS011;14508;50.924;11.600;2024-02-21T00:17:50;15.82;;;2.80;;
26953;SDS011;14508;50.924;11.600;2024-02-21T00:20:19;24.05;;;3.30;;
26953;SDS011;14508;50.924;11.600;2024-02-21T00:22:47;13.30;;;2.60;;
26953;SDS011;14508;50.924;11.600;2024-02-21T00:25:16;14.10;;;2.70;;
26953;SDS011;14508;50.924;11.600;2024-02-21T00:27:44;13.02;;;2.58;;
26953;SDS011;14508;50.924;11.600;2024-02-21T00:30:12;18.42;;;3.10;;
26953;SDS011;14508;50.924;11.600;2024-02-21T00:32:40;13.95;;;3.17;;
26953;SDS011;14508;50.924;11.600;2024-02-21T00:35:08;10.63;;;2.75;;
26953;SDS011;14508;50.924;11.600;2024-02-21T00:37:36;12.27;;;2.47;;
26953;SDS011;14508;50.924;11.600;2024-02-21T00:40:05;10.45;;;3.00;;
26953;SDS011;14508;50.924;11.600;2024-02-21T00:42:34;10.48;;;2.55;;
26953;SDS011;14508;50.924;11.600;2024-02-21T00:45:03;22.05;;;3.45;;
26953;SDS011;14508;50.924;11.600;2024-02-21T00:47:31;7.50;;;2.80;;
26953;SDS011;14508;50.924;11.600;2024-02-21T00:49:59;19.42;;;2.83;;
26953;SDS011;14508;50.924;11.600;2024-02-21T00:52:27;14.02;;;3.20;;
26953;SDS011;14508;50.924;11.600;2024-02-21T00:54:55;10.80;;;2.50;;
26953;SDS011;14508;50.924;11.600;2024-02-21T00:57:23;8.20;;;2.67;;
26953;SDS011;14508;50.924;11.600;2024-02-21T00:59:52;11.90;;;2.72;;
26953;SDS011;14508;50.924;11.600;2024-02-21T01:02:20;14.93;;;2.83;;
26953;SDS011;14508;50.924;11.600;2024-02-21T01:04:48;10.20;;;2.40;;
26953;SDS011;14508;50.924;11.600;2024-02-21T01:07:16;15.65;;;2.28;;
26953;SDS011;14508;50.924;11.600;2024-02-21T01:09:44;18.67;;;3.55;;
26953;SDS011;14508;50.924;11.600;2024-02-21T01:12:12;12.25;;;2.97;;
26953;SDS011;14508;50.924;11.600;2024-02-21T01:14:39;13.77;;;3.22;;
26953;SDS011;14508;50.924;11.600;2024-02-21T01:17:09;12.07;;;2.78;;
26953;SDS011;14508;50.924;11.600;2024-02-21T01:19:36;13.30;;;3.10;;
26953;SDS011;14508;50.924;11.600;2024-02-21T01:22:04;18.83;;;3.30;;
26953;SDS011;14508;50.924;11.600;2024-02-21T01:24:32;10.82;;;2.85;;
26953;SDS011;14508;50.924;11.600;2024-02-21T01:27:00;12.07;;;2.30;;
26953;SDS011;14508;50.924;11.600;2024-02-21T01:29:28;12.13;;;3.03;;
26953;SDS011;14508;50.924;11.600;2024-02-21T01:31:56;10.15;;;2.90;;
26953;SDS011;14508;50.924;11.600;2024-02-21T01:34:25;9.70;;;2.42;;
26953;SDS011;14508;50.924;11.600;2024-02-21T01:36:57;11.95;;;2.55;;
26953;SDS011;14508;50.924;11.600;2024-02-21T01:39:30;11.38;;;2.40;;
26953;SDS011;14508;50.924;11.600;2024-02-21T01:41:58;9.32;;;2.90;;
26953;SDS011;14508;50.924;11.600;2024-02-21T01:44:26;16.65;;;2.80;;
26953;SDS011;14508;50.924;11.600;2024-02-21T01:46:53;14.10;;;3.25;;
26953;SDS011;14508;50.924;11.600;2024-02-21T01:49:21;17.13;;;2.92;;
26953;SDS011;14508;50.924;11.600;2024-02-21T01:51:51;9.77;;;2.72;;
26953;SDS011;14508;50.924;11.600;2024-02-21T01:54:20;14.60;;;2.85;;
26953;SDS011;14508;50.924;11.600;2024-02-21T01:56:48;12.13;;;2.67;;
26953;SDS011;14508;50.924;11.600;2024-02-21T01:59:16;18.55;;;2.47;;
26953;SDS011;14508;50.924;11.600;2024-02-21T02:01:46;15.57;;;3.67;;
26953;SDS011;14508;50.924;11.600;2024-02-21T02:04:14;13.00;;;2.75;;
26953;SDS011;14508;50.924;11.600;2024-02-21T02:06:42;9.68;;;2.60;;
26953;SDS011;14508;50.924;11.600;2024-02-21T02:09:11;15.45;;;2.97;;
26953;SDS011;14508;50.924;11.600;2024-02-21T02:11:39;12.55;;;3.70;;
26953;SDS011;14508;50.924;11.600;2024-02-21T02:14:07;9.02;;;2.75;;
26953;SDS011;14508;50.924;11.600;2024-02-21T02:16:35;12.25;;;3.03;;
26953;SDS011;14508;50.924;11.600;2024-02-21T02:19:03;9.48;;;2.78;;
26953;SDS011;14508;50.924;11.600;2024-02-21T02:21:32;16.25;;;3.05;;
26953;SDS011;14508;50.924;11.600;2024-02-21T02:24:06;17.70;;;3.90;;
26953;SDS011;14508;50.924;11.600;2024-02-21T02:26:34;12.85;;;3.10;;
26953;SDS011;14508;50.924;11.600;2024-02-21T02:29:02;15.32;;;3.22;;
26953;SDS011;14508;50.924;11.600;2024-02-21T02:31:30;13.27;;;3.30;;
26953;SDS011;14508;50.924;11.600;2024-02-21T02:33:57;9.25;;;2.67;;
26953;SDS011;14508;50.924;11.600;2024-02-21T02:36:25;14.02;;;2.92;;
26953;SDS011;14508;50.924;11.600;2024-02-21T02:38:53;9.93;;;3.40;;
26953;SDS011;14508;50.924;11.600;2024-02-21T02:41:22;9.25;;;3.00;;
26953;SDS011;14508;50.924;11.600;2024-02-21T02:43:50;11.57;;;2.70;;
26953;SDS011;14508;50.924;11.600;2024-02-21T02:46:18;11.63;;;2.83;;
26953;SDS011;14508;50.924;11.600;2024-02-21T02:48:46;10.93;;;2.42;;
26953;SDS011;14508;50.924;11.600;2024-02-21T02:51:14;12.43;;;3.33;;
26953;SDS011;14508;50.924;11.600;2024-02-21T02:53:42;15.13;;;3.17;;
26953;SDS011;14508;50.924;11.600;2024-02-21T02:56:13;13.80;;;2.80;;
26953;SDS011;14508;50.924;11.600;2024-02-21T02:58:43;10.07;;;2.72;;
26953;SDS011;14508;50.924;11.600;2024-02-21T03:01:11;10.50;;;2.63;;
26953;SDS011;14508;50.924;11.600;2024-02-21T03:03:40;7.13;;;2.50;;
26953;SDS011;14508;50.924;11.600;2024-02-21T03:06:08;15.48;;;3.35;;
26953;SDS011;14508;50.924;11.600;2024-02-21T03:08:35;15.13;;;2.97;;
26953;SDS011;14508;50.924;11.600;2024-02-21T03:11:03;13.73;;;4.15;;
26953;SDS011;14508;50.924;11.600;2024-02-21T03:13:31;16.48;;;3.08;;
26953;SDS011;14508;50.924;11.600;2024-02-21T03:16:00;10.50;;;3.25;;
26953;SDS011;14508;50.924;11.600;2024-02-21T03:18:28;7.60;;;3.03;;
26953;SDS011;14508;50.924;11.600;2024-02-21T03:20:56;10.95;;;3.15;;
26953;SDS011;14508;50.924;11.600;2024-02-21T03:23:24;13.77;;;3.03;;
26953;SDS011;14508;50.924;11.600;2024-02-21T03:25:51;15.00;;;3.22;;
26953;SDS011;14508;50.924;11.600;2024-02-21T03:28:19;14.63;;;2.88;;
26953;SDS011;14508;50.924;11.600;2024-02-21T03:30:47;12.15;;;3.58;;
26953;SDS011;14508;50.924;11.600;2024-02-21T03:33:16;11.18;;;2.90;;
26953;SDS011;14508;50.924;11.600;2024-02-21T03:35:46;24.08;;;3.70;;
26953;SDS011;14508;50.924;11.600;2024-02-21T03:38:14;15.00;;;3.35;;
26953;SDS011;14508;50.924;11.600;2024-02-21T03:40:42;10.15;;;3.38;;
26953;SDS011;14508;50.924;11.600;2024-02-21T03:43:10;11.35;;;2.90;;
26953;SDS011;14508;50.924;11.600;2024-02-21T03:45:38;10.65;;;2.65;;
26953;SDS011;14508;50.924;11.600;2024-02-21T03:48:06;10.05;;;2.80;;
26953;SDS011;14508;50.924;11.600;2024-02-21T03:50:35;11.93;;;2.97;;
26953;SDS011;14508;50.924;11.600;2024-02-21T03:53:03;13.80;;;3.25;;
26953;SDS011;14508;50.924;11.600;2024-02-21T03:55:31;15.70;;;3.55;;
26953;SDS011;14508;50.924;11.600;2024-02-21T03:57:59;17.35;;;3.60;;
26953;SDS011;14508;50.924;11.600;2024-02-21T04:00:27;9.25;;;2.70;;
26953;SDS011;14508;50.924;11.600;2024-02-21T04:02:54;18.63;;;3.70;;
26953;SDS011;14508;50.924;11.600;2024-02-21T04:05:22;9.00;;;3.13;;
26953;SDS011;14508;50.924;11.600;2024-02-21T04:07:53;9.55;;;3.22;;
26953;SDS011;14508;50.924;11.600;2024-02-21T04:10:20;8.02;;;2.92;;
26953;SDS011;14508;50.924;11.600;2024-02-21T04:12:48;10.68;;;2.72;;
26953;SDS011;14508;50.924;11.600;2024-02-21T04:15:16;15.45;;;3.22;;
26953;SDS011;14508;50.924;11.600;2024-02-21T04:17:44;19.30;;;3.85;;
26953;SDS011;14508;50.924;11.600;2024-02-21T04:20:13;7.63;;;2.92;;
26953;SDS011;14508;50.924;11.600;2024-02-21T04:22:42;19.83;;;3.45;;
26953;SDS011;14508;50.924;11.600;2024-02-21T04:25:12;9.13;;;3.15;;
26953;SDS011;14508;50.924;11.600;2024-02-21T04:27:40;13.27;;;2.55;;
26953;SDS011;14508;50.924;11.600;2024-02-21T04:30:09;11.85;;;3.83;;
26953;SDS011;14508;50.924;11.600;2024-02-21T04:32:37;13.98;;;3.67;;
26953;SDS011;14508;50.924;11.600;2024-02-21T04:35:05;17.17;;;3.63;;
26953;SDS011;14508;50.924;11.600;2024-02-21T04:37:33;10.30;;;2.65;;
26953;SDS011;14508;50.924;11.600;2024-02-21T04:40:01;13.48;;;3.28;;
26953;SDS011;14508;50.924;11.600;2024-02-21T04:42:31;15.55;;;3.50;;
26953;SDS011;14508;50.924;11.600;2024-02-21T04:44:58;12.88;;;3.30;;
26953;SDS011;14508;50.924;11.600;2024-02-21T04:47:26;14.90;;;2.97;;
26953;SDS011;14508;50.924;11.600;2024-02-21T04:49:54;11.50;;;3.55;;
26953;SDS011;14508;50.924;11.600;2024-02-21T04:52:22;13.90;;;3.08;;
26953;SDS011;14508;50.924;11.600;2024-02-21T04:54:50;15.00;;;3.30;;
26953;SDS011;14508;50.924;11.600;2024-02-21T04:57:18;12.23;;;2.97;;
26953;SDS011;14508;50.924;11.600;2024-02-21T04:59:47;18.58;;;4.35;;
26953;SDS011;14508;50.924;11.600;2024-02-21T05:02:15;13.50;;;3.42;;
26953;SDS011;14508;50.924;11.600;2024-02-21T05:04:44;16.67;;;3.85;;
26953;SDS011;14508;50.924;11.600;2024-02-21T05:07:12;15.65;;;3.90;;
26953;SDS011;14508;50.924;11.600;2024-02-21T05:09:41;12.40;;;3.63;;
26953;SDS011;14508;50.924;11.600;2024-02-21T05:12:09;12.40;;;3.47;;
26953;SDS011;14508;50.924;11.600;2024-02-21T05:14:37;14.70;;;3.30;;
26953;SDS011;14508;50.924;11.600;2024-02-21T05:17:06;16.02;;;3.65;;
26953;SDS011;14508;50.924;11.600;2024-02-21T05:19:34;14.15;;;3.17;;
26953;SDS011;14508;50.924;11.600;2024-02-21T05:22:02;15.27;;;3.90;;
26953;SDS011;14508;50.924;11.600;2024-02-21T05:24:30;12.18;;;3.47;;
26953;SDS011;14508;50.924;11.600;2024-02-21T05:26:58;10.70;;;3.25;;
26953;SDS011;14508;50.924;11.600;2024-02-21T05:29:26;11.93;;;3.30;;
26953;SDS011;14508;50.924;11.600;2024-02-21T05:31:57;14.75;;;3.92;;
26953;SDS011;14508;50.924;11.600;2024-02-21T05:34:27;12.50;;;3.63;;
26953;SDS011;14508;50.924;11.600;2024-02-21T05:36:55;13.65;;;3.63;;
26953;SDS011;14508;50.924;11.600;2024-02-21T05:39:24;9.23;;;3.10;;
26953;SDS011;14508;50.924;11.600;2024-02-21T05:41:52;11.07;;;3.63;;
26953;SDS011;14508;50.924;11.600;2024-02-21T05:44:19;10.05;;;3.38;;
26953;SDS011;14508;50.924;11.600;2024-02-21T05:46:48;22.85;;;3.90;;
26953;SDS011;14508;50.924;11.600;2024-02-21T05:49:16;11.75;;;3.67;;
26953;SDS011;14508;50.924;11.600;2024-02-21T05:51:46;9.10;;;3.17;;
26953;SDS011;14508;50.924;11.600;2024-02-21T05:54:15;10.98;;;3.55;;
26953;SDS011;14508;50.924;11.600;2024-02-21T05:56:44;12.90;;;3.58;;
26953;SDS011;14508;50.924;11.600;2024-02-21T05:59:13;14.80;;;4.00;;
26953;SDS011;14508;50.924;11.600;2024-02-21T06:01:41;11.77;;;4.03;;
26953;SDS011;14508;50.924;11.600;2024-02-21T06:04:09;15.98;;;4.28;;
26953;SDS011;14508;50.924;11.600;2024-02-21T06:06:37;15.75;;;3.63;;
26953;SDS011;14508;50.924;11.600;2024-02-21T06:09:06;11.75;;;3.47;;
26953;SDS011;14508;50.924;11.600;2024-02-21T06:11:34;11.57;;;3.97;;
26953;SDS011;14508;50.924;11.600;2024-02-21T06:14:04;14.15;;;3.92;;
26953;SDS011;14508;50.924;11.600;2024-02-21T06:16:32;15.73;;;4.18;;
26953;SDS011;14508;50.924;11.600;2024-02-21T06:19:00;11.85;;;3.72;;
26953;SDS011;14508;50.924;11.600;2024-02-21T06:21:29;18.92;;;4.63;;
26953;SDS011;14508;50.924;11.600;2024-02-21T06:23:57;15.77;;;3.50;;
26953;SDS011;14508;50.924;11.600;2024-02-21T06:26:26;18.60;;;3.92;;
26953;SDS011;14508;50.924;11.600;2024-02-21T06:28:54;9.52;;;3.85;;
26953;SDS011;14508;50.924;11.600;2024-02-21T06:31:22;21.90;;;4.43;;
26953;SDS011;14508;50.924;11.600;2024-02-21T06:33:50;20.42;;;4.40;;
26953;SDS011;14508;50.924;11.600;2024-02-21T06:36:18;13.77;;;3.65;;
26953;SDS011;14508;50.924;11.600;2024-02-21T06:38:46;14.32;;;4.13;;
26953;SDS011;14508;50.924;11.600;2024-02-21T06:41:14;13.10;;;3.83;;
26953;SDS011;14508;50.924;11.600;2024-02-21T06:43:44;19.08;;;3.42;;
26953;SDS011;14508;50.924;11.600;2024-02-21T06:46:22;15.52;;;3.80;;
26953;SDS011;14508;50.924;11.600;2024-02-21T06:48:50;11.85;;;3.35;;
26953;SDS011;14508;50.924;11.600;2024-02-21T06:51:18;16.98;;;3.47;;
26953;SDS011;14508;50.924;11.600;2024-02-21T06:53:49;9.80;;;3.63;;
26953;SDS011;14508;50.924;11.600;2024-02-21T06:56:17;14.77;;;3.22;;
26953;SDS011;14508;50.924;11.600;2024-02-21T06:58:46;13.38;;;3.30;;
26953;SDS011;14508;50.924;11.600;2024-02-21T07:01:14;10.30;;;2.78;;
26953;SDS011;14508;50.924;11.600;2024-02-21T07:03:42;8.23;;;2.65;;
26953;SDS011;14508;50.924;11.600;2024-02-21T07:06:10;11.15;;;3.13;;
26953;SDS011;14508;50.924;11.600;2024-02-21T07:08:39;5.25;;;2.50;;
26953;SDS011;14508;50.924;11.600;2024-02-21T07:11:06;8.75;;;3.13;;
26953;SDS011;14508;50.924;11.600;2024-02-21T07:13:35;12.07;;;2.63;;
26953;SDS011;14508;50.924;11.600;2024-02-21T07:16:04;10.45;;;3.33;;
26953;SDS011;14508;50.924;11.600;2024-02-21T07:18:33;9.52;;;3.60;;
26953;SDS011;14508;50.924;11.600;2024-02-21T07:21:01;14.95;;;3.60;;
26953;SDS011;14508;50.924;11.600;2024-02-21T07:23:29;18.00;;;3.30;;
26953;SDS011;14508;50.924;11.600;2024-02-21T07:25:57;9.77;;;3.00;;
26953;SDS011;14508;50.924;11.600;2024-02-21T07:28:25;8.38;;;2.88;;
26953;SDS011;14508;50.924;11.600;2024-02-21T07:30:53;10.52;;;2.85;;
26953;SDS011;14508;50.924;11.600;2024-02-21T07:33:22;16.10;;;2.92;;
26953;SDS011;14508;50.924;11.600;2024-02-21T07:35:50;11.88;;;3.58;;
26953;SDS011;14508;50.924;11.600;2024-02-21T07:38:18;6.88;;;2.55;;
26953;SDS011;14508;50.924;11.600;2024-02-21T07:40:46;11.05;;;3.28;;
26953;SDS011;14508;50.924;11.600;2024-02-21T07:43:15;9.98;;;2.58;;
26953;SDS011;14508;50.924;11.600;2024-02-21T07:45:43;11.30;;;2.88;;
26953;SDS011;14508;50.924;11.600;2024-02-21T07:48:11;11.77;;;3.13;;
26953;SDS011;14508;50.924;11.600;2024-02-21T07:50:41;11.02;;;2.78;;
26953;SDS011;14508;50.924;11.600;2024-02-21T07:53:08;9.75;;;3.35;;
26953;SDS011;14508;50.924;11.600;2024-02-21T07:55:36;6.72;;;2.97;;
26953;SDS011;14508;50.924;11.600;2024-02-21T07:58:04;10.02;;;3.15;;
26953;SDS011;14508;50.924;11.600;2024-02-21T08:00:32;14.18;;;3.58;;
26953;SDS011;14508;50.924;11.600;2024-02-21T08:03:00;5.72;;;2.75;;
26953;SDS011;14508;50.924;11.600;2024-02-21T08:05:28;15.45;;;3.70;;
26953;SDS011;14508;50.924;11.600;2024-02-21T08:07:58;9.40;;;3.40;;
26953;SDS011;14508;50.924;11.600;2024-02-21T08:10:26;12.32;;;2.67;;
26953;SDS011;14508;50.924;11.600;2024-02-21T08:12:55;17.65;;;3.78;;
26953;SDS011;14508;50.924;11.600;2024-02-21T08:15:23;9.20;;;2.88;;
26953;SDS011;14508;50.924;11.600;2024-02-21T08:17:54;9.05;;;2.70;;
26953;SDS011;14508;50.924;11.600;2024-02-21T08:20:26;9.35;;;3.35;;
26953;SDS011;14508;50.924;11.600;2024-02-21T08:22:54;11.82;;;3.33;;
26953;SDS011;14508;50.924;11.600;2024-02-21T08:25:23;14.43;;;3.15;;
26953;SDS011;14508;50.924;11.600;2024-02-21T08:27:51;8.50;;;3.17;;
26953;SDS011;14508;50.924;11.600;2024-02-21T08:30:22;13.82;;;2.88;;
26953;SDS011;14508;50.924;11.600;2024-02-21T08:32:50;8.05;;;2.50;;
26953;SDS011;14508;50.924;11.600;2024-02-21T08:35:20;10.25;;;2.67;;
26953;SDS011;14508;50.924;11.600;2024-02-21T08:37:49;10.68;;;2.75;;
26953;SDS011;14508;50.924;11.600;2024-02-21T08:40:18;7.03;;;2.65;;
26953;SDS011;14508;50.924;11.600;2024-02-21T08:42:49;10.00;;;2.60;;
26953;SDS011;14508;50.924;11.600;2024-02-21T08:45:17;13.20;;;3.25;;
26953;SDS011;14508;50.924;11.600;2024-02-21T08:47:44;10.63;;;3.05;;
26953;SDS011;14508;50.924;11.600;2024-02-21T08:50:13;9.13;;;2.78;;
26953;SDS011;14508;50.924;11.600;2024-02-21T08:52:53;10.40;;;2.25;;
26953;SDS011;14508;50.924;11.600;2024-02-21T08:55:22;8.63;;;2.25;;
26953;SDS011;14508;50.924;11.600;2024-02-21T08:57:52;14.73;;;3.80;;
26953;SDS011;14508;50.924;11.600;2024-02-21T09:00:20;14.93;;;2.78;;
26953;SDS011;14508;50.924;11.600;2024-02-21T09:02:53;6.55;;;2.70;;
26953;SDS011;14508;50.924;11.600;2024-02-21T09:05:22;9.90;;;3.33;;
26953;SDS011;14508;50.924;11.600;2024-02-21T09:07:51;11.32;;;3.30;;
26953;SDS011;14508;50.924;11.600;2024-02-21T09:10:19;9.13;;;3.17;;
26953;SDS011;14508;50.924;11.600;2024-02-21T09:12:47;12.38;;;2.78;;
26953;SDS011;14508;50.924;11.600;2024-02-21T09:15:17;8.25;;;3.53;;
26953;SDS011;14508;50.924;11.600;2024-02-21T09:17:45;8.32;;;2.92;;
26953;SDS011;14508;50.924;11.600;2024-02-21T09:20:12;7.43;;;2.80;;
26953;SDS011;14508;50.924;11.600;2024-02-21T09:22:43;14.13;;;3.08;;
26953;SDS011;14508;50.924;11.600;2024-02-21T09:25:11;11.77;;;2.67;;
26953;SDS011;14508;50.924;11.600;2024-02-21T09:27:39;13.30;;;3.40;;
26953;SDS011;14508;50.924;11.600;2024-02-21T09:30:06;8.13;;;2.83;;
26953;SDS011;14508;50.924;11.600;2024-02-21T09:32:36;6.55;;;2.25;;
26953;SDS011;14508;50.924;11.600;2024-02-21T09:35:04;10.00;;;2.88;;
26953;SDS011;14508;50.924;11.600;2024-02-21T09:37:32;10.88;;;2.85;;
26953;SDS011;14508;50.924;11.600;2024-02-21T09:40:00;3.45;;;2.25;;
26953;SDS011;14508;50.924;11.600;2024-02-21T09:42:30;8.10;;;2.58;;
26953;SDS011;14508;50.924;11.600;2024-02-21T09:45:07;6.57;;;2.30;;
26953;SDS011;14508;50.924;11.600;2024-02-21T09:47:42;15.00;;;3.42;;
26953;SDS011;14508;50.924;11.600;2024-02-21T09:50:17;8.18;;;3.03;;
26953;SDS011;14508;50.924;11.600;2024-02-21T09:52:48;10.38;;;2.83;;
26953;SDS011;14508;50.924;11.600;2024-02-21T09:55:17;11.45;;;2.90;;
26953;SDS011;14508;50.924;11.600;2024-02-21T09:57:46;12.68;;;2.60;;
26953;SDS011;14508;50.924;11.600;2024-02-21T10:00:15;11.00;;;2.28;;
26953;SDS011;14508;50.924;11.600;2024-02-21T10:02:49;8.77;;;2.78;;
26953;SDS011;14508;50.924;11.600;2024-02-21T10:05:17;6.15;;;2.17;;
26953;SDS011;14508;50.924;11.600;2024-02-21T10:07:45;12.63;;;3.20;;
26953;SDS011;14508;50.924;11.600;2024-02-21T10:10:15;6.32;;;2.50;;
26953;SDS011;14508;50.924;11.600;2024-02-21T10:12:48;8.57;;;1.98;;
26953;SDS011;14508;50.924;11.600;2024-02-21T10:15:19;4.57;;;1.88;;
26953;SDS011;14508;50.924;11.600;2024-02-21T10:17:49;11.52;;;2.80;;
26953;SDS011;14508;50.924;11.600;2024-02-21T10:20:25;8.05;;;2.72;;
26953;SDS011;14508;50.924;11.600;2024-02-21T10:23:00;8.52;;;2.70;;
26953;SDS011;14508;50.924;11.600;2024-02-21T10:25:29;5.78;;;2.08;;
26953;SDS011;14508;50.924;11.600;2024-02-21T10:27:58;8.30;;;1.88;;
26953;SDS011;14508;50.924;11.600;2024-02-21T10:30:26;11.65;;;2.30;;
26953;SDS011;14508;50.924;11.600;2024-02-21T10:32:55;6.90;;;1.95;;
26953;SDS011;14508;50.924;11.600;2024-02-21T10:35:27;5.50;;;1.90;;
26953;SDS011;14508;50.924;11.600;2024-02-21T10:37:56;6.47;;;1.92;;
26953;SDS011;14508;50.924;11.600;2024-02-21T10:40:26;6.75;;;1.80;;
26953;SDS011;14508;50.924;11.600;2024-02-21T10:42:56;9.57;;;2.13;;
26953;SDS011;14508;50.924;11.600;2024-02-21T10:45:28;5.47;;;2.08;;
26953;SDS011;14508;50.924;11.600;2024-02-21T10:48:05;6.18;;;1.92;;
26953;SDS011;14508;50.924;11.600;2024-02-21T10:50:40;4.60;;;1.77;;
26953;SDS011;14508;50.924;11.600;2024-02-21T10:53:24;4.15;;;1.95;;
26953;SDS011;14508;50.924;11.600;2024-02-21T10:56:02;6.55;;;1.88;;
26953;SDS011;14508;50.924;11.600;2024-02-21T10:58:42;5.70;;;2.38;;
26953;SDS011;14508;50.924;11.600;2024-02-21T11:01:11;4.53;;;2.05;;
26953;SDS011;14508;50.924;11.600;2024-02-21T11:03:42;9.40;;;2.05;;
26953;SDS011;14508;50.924;11.600;2024-02-21T11:06:12;6.15;;;2.00;;
26953;SDS011;14508;50.924;11.600;2024-02-21T11:08:41;4.00;;;2.00;;
26953;SDS011;14508;50.924;11.600;2024-02-21T11:11:08;10.55;;;2.47;;
26953;SDS011;14508;50.924;11.600;2024-02-21T11:14:06;9.52;;;2.35;;
26953;SDS011;14508;50.924;11.600;2024-02-21T11:16:35;9.80;;;2.28;;
26953;SDS011;14508;50.924;11.600;2024-02-21T11:19:10;10.75;;;2.00;;
26953;SDS011;14508;50.924;11.600;2024-02-21T11:21:47;4.75;;;1.80;;
26953;SDS011;14508;50.924;11.600;2024-02-21T11:24:25;6.25;;;2.08;;
26953;SDS011;14508;50.924;11.600;2024-02-21T11:26:56;6.30;;;1.98;;
26953;SDS011;14508;50.924;11.600;2024-02-21T11:29:39;7.05;;;2.40;;
26953;SDS011;14508;50.924;11.600;2024-02-21T11:32:09;7.85;;;2.40;;
26953;SDS011;14508;50.924;11.600;2024-02-21T11:34:39;4.57;;;2.00;;
26953;SDS011;14508;50.924;11.600;2024-02-21T11:37:13;8.75;;;1.83;;
26953;SDS011;14508;50.924;11.600;2024-02-21T11:39:43;5.97;;;2.00;;
26953;SDS011;14508;50.924;11.600;2024-02-21T11:42:11;5.05;;;2.03;;
26953;SDS011;14508;50.924;11.600;2024-02-21T11:44:39;11.32;;;2.20;;
26953;SDS011;14508;50.924;11.600;2024-02-21T11:47:08;13.75;;;2.53;;
26953;SDS011;14508;50.924;11.600;2024-02-21T11:49:37;7.22;;;2.03;;
26953;SDS011;14508;50.924;11.600;2024-02-21T11:52:12;6.60;;;2.20;;
26953;SDS011;14508;50.924;11.600;2024-02-21T11:54:42;6.68;;;2.13;;
26953;SDS011;14508;50.924;11.600;2024-02-21T11:57:10;3.78;;;1.90;;
26953;SDS011;14508;50.924;11.600;2024-02-21T11:59:39;6.03;;;1.80;;
26953;SDS011;14508;50.924;11.600;2024-02-21T12:02:07;7.50;;;1.88;;
26953;SDS011;14508;50.924;11.600;2024-02-21T12:04:36;7.00;;;1.70;;
26953;SDS011;14508;50.924;11.600;2024-02-21T12:07:07;12.32;;;2.10;;
26953;SDS011;14508;50.924;11.600;2024-02-21T12:09:35;8.60;;;1.80;;
26953;SDS011;14508;50.924;11.600;2024-02-21T12:12:03;4.97;;;1.73;;
26953;SDS011;14508;50.924;11.600;2024-02-21T12:14:32;8.68;;;2.60;;
26953;SDS011;14508;50.924;11.600;2024-02-21T12:17:13;5.90;;;2.13;;
26953;SDS011;14508;50.924;11.600;2024-02-21T12:19:41;5.22;;;1.52;;
26953;SDS011;14508;50.924;11.600;2024-02-21T12:22:09;9.05;;;2.05;;
26953;SDS011;14508;50.924;11.600;2024-02-21T12:24:43;2.97;;;1.40;;
26953;SDS011;14508;50.924;11.600;2024-02-21T12:27:14;5.50;;;1.35;;
26953;SDS011;14508;50.924;11.600;2024-02-21T12:29:42;11.55;;;1.77;;
26953;SDS011;14508;50.924;11.600;2024-02-21T12:32:10;6.95;;;1.40;;
26953;SDS011;14508;50.924;11.600;2024-02-21T12:34:40;12.60;;;2.40;;
26953;SDS011;14508;50.924;11.600;2024-02-21T12:37:19;3.03;;;1.58;;
26953;SDS011;14508;50.924;11.600;2024-02-21T12:39:49;6.38;;;2.00;;
26953;SDS011;14508;50.924;11.600;2024-02-21T12:42:17;5.00;;;1.92;;
26953;SDS011;14508;50.924;11.600;2024-02-21T12:44:45;5.03;;;1.90;;
26953;SDS011;14508;50.924;11.600;2024-02-21T12:47:13;5.63;;;1.90;;
26953;SDS011;14508;50.924;11.600;2024-02-21T12:49:42;14.48;;;2.30;;
26953;SDS011;14508;50.924;11.600;2024-02-21T12:52:12;10.40;;;2.20;;
26953;SDS011;14508;50.924;11.600;2024-02-21T12:54:40;6.05;;;1.50;;
26953;SDS011;14508;50.924;11.600;2024-02-21T12:57:09;6.18;;;1.48;;
26953;SDS011;14508;50.924;11.600;2024-02-21T12:59:37;4.50;;;1.92;;
26953;SDS011;14508;50.924;11.600;2024-02-21T13:02:05;7.40;;;1.70;;
26953;SDS011;14508;50.924;11.600;2024-02-21T13:04:35;7.65;;;2.22;;
26953;SDS011;14508;50.924;11.600;2024-02-21T13:07:04;6.97;;;2.03;;
26953;SDS011;14508;50.924;11.600;2024-02-21T13:09:32;4.88;;;2.00;;
26953;SDS011;14508;50.924;11.600;2024-02-21T13:12:00;5.95;;;1.63;;
26953;SDS011;14508;50.924;11.600;2024-02-21T13:14:29;7.43;;;2.50;;
26953;SDS011;14508;50.924;11.600;2024-02-21T13:16:59;8.00;;;1.85;;
26953;SDS011;14508;50.924;11.600;2024-02-21T13:19:27;2.95;;;1.30;;
26953;SDS011;14508;50.924;11.600;2024-02-21T13:21:55;5.63;;;1.95;;
26953;SDS011;14508;50.924;11.600;2024-02-21T13:24:24;6.80;;;1.52;;
26953;SDS011;14508;50.924;11.600;2024-02-21T13:26:53;6.10;;;1.70;;
26953;SDS011;14508;50.924;11.600;2024-02-21T13:29:20;5.90;;;1.40;;
26953;SDS011;14508;50.924;11.600;2024-02-21T13:31:49;6.28;;;1.83;;
26953;SDS011;14508;50.924;11.600;2024-02-21T13:34:17;9.27;;;1.98;;
26953;SDS011;14508;50.924;11.600;2024-02-21T13:36:45;5.75;;;1.52;;
26953;SDS011;14508;50.924;11.600;2024-02-21T13:39:13;3.55;;;1.58;;
26953;SDS011;14508;50.924;11.600;2024-02-21T13:41:43;4.15;;;2.00;;
26953;SDS011;14508;50.924;11.600;2024-02-21T13:44:13;4.55;;;1.35;;
26953;SDS011;14508;50.924;11.600;2024-02-21T13:46:41;6.85;;;2.03;;
26953;SDS011;14508;50.924;11.600;2024-02-21T13:49:09;5.22;;;1.55;;
26953;SDS011;14508;50.924;11.600;2024-02-21T13:51:37;7.45;;;1.42;;
26953;SDS011;14508;50.924;11.600;2024-02-21T13:54:07;4.30;;;1.20;;
26953;SDS011;14508;50.924;11.600;2024-02-21T13:56:36;6.75;;;1.48;;
26953;SDS011;14508;50.924;11.600;2024-02-21T13:59:05;6.90;;;1.70;;
26953;SDS011;14508;50.924;11.600;2024-02-21T14:01:34;6.55;;;1.50;;
26953;SDS011;14508;50.924;11.600;2024-02-21T14:04:03;5.47;;;1.80;;
26953;SDS011;14508;50.924;11.600;2024-02-21T14:06:31;8.82;;;2.05;;
26953;SDS011;14508;50.924;11.600;2024-02-21T14:08:59;5.97;;;1.75;;
26953;SDS011;14508;50.924;11.600;2024-02-21T14:11:27;6.50;;;1.52;;
26953;SDS011;14508;50.924;11.600;2024-02-21T14:13:57;4.30;;;1.35;;
26953;SDS011;14508;50.924;11.600;2024-02-21T14:16:26;6.38;;;1.88;;
26953;SDS011;14508;50.924;11.600;2024-02-21T14:18:56;2.70;;;1.20;;
26953;SDS011;14508;50.924;11.600;2024-02-21T14:21:24;6.50;;;1.10;;
26953;SDS011;14508;50.924;11.600;2024-02-21T14:23:51;6.63;;;1.48;;
26953;SDS011;14508;50.924;11.600;2024-02-21T14:26:20;9.18;;;1.30;;
26953;SDS011;14508;50.924;11.600;2024-02-21T14:28:48;5.63;;;1.40;;
26953;SDS011;14508;50.924;11.600;2024-02-21T14:31:16;7.15;;;1.80;;
26953;SDS011;14508;50.924;11.600;2024-02-21T14:33:45;11.25;;;1.55;;
26953;SDS011;14508;50.924;11.600;2024-02-21T14:36:13;2.25;;;1.20;;